Flight Track Log - Related Links

Times and Time Zones

All times are in EDT time to prevent confusion due to time zone crossing. See the EJA370 flight status page for this flight to view local times or setup timezone preferences in your user account.

Time Position Orientation Groundspeed Altitude Reporting Facility
EDT Latitude Longitude Course Direction KTS MPH feet Rate Location/Type
Mon 12:45:43 PM 44.6019 -111.1036 162° South 216 249 11,200  Level Salt Lake Center
Mon 12:46:45 PM 44.5300 -111.0292 144° Southeast 273 314 14,700 2,952 Climbing Salt Lake Center
Mon 12:47:00 PM 44.0274 -110.8686 165° South  Level FlightAware Approximate
Mon 12:47:47 PM 44.4672 -110.9425 135° Southeast 312 359 17,300  Level Salt Lake Center
Mon 12:48:00 PM 43.9175 -110.8280 166° South  Level FlightAware Approximate
Mon 12:48:49 PM 44.3875 -110.8600 144° Southeast 359 413 19,400  Level Salt Lake Center
Mon 12:49:00 PM 43.8063 -110.7946 168° South  Level FlightAware Approximate
Mon 12:49:51 PM 44.2956 -110.7514 140° Southeast 383 441 22,100  Level Salt Lake Center
Mon 12:50:00 PM 43.6969 -110.7523 162° South  Level FlightAware Approximate
Mon 12:50:53 PM 44.2139 -110.6542 140° Southeast 397 457 24,400  Level Salt Lake Center
Mon 12:51:54 PM 44.1158 -110.5378 140° Southeast 412 474 27,100 2,439 Climbing Salt Lake Center
Mon 12:52:56 PM 44.0311 -110.4361 139° Southeast 419 482 29,400 2,274 Climbing Salt Lake Center
Mon 12:53:58 PM 43.9328 -110.3206 140° Southeast 414 476 31,800 2,081 Climbing Salt Lake Center
Mon 12:55:00 PM 43.8497 -110.2242 140° Southeast 410 472 33,700 2,000 Climbing Salt Lake Center
Mon 12:56:01 PM 43.7544 -110.1122 140° Southeast 402 463 35,900 1,951 Climbing Salt Lake Center
Mon 12:57:03 PM 43.6744 -110.0189 140° Southeast 394 453 37,700 1,452 Climbing Salt Lake Center
Mon 12:58:05 PM 43.5953 -109.9286 140° Southeast 387 445 38,900 1,113 Climbing Salt Lake Center
Mon 12:59:07 PM 43.4994 -109.8200 141° Southeast 389 448 40,000 968 Climbing Salt Lake Center
Mon 01:00:09 PM 43.4192 -109.7272 140° Southeast 394 453 40,900 488 Climbing Salt Lake Center
Mon 01:01:10 PM 43.3217 -109.6158 140° Southeast 408 470 41,000 49 Climbing Salt Lake Center
Mon 01:02:12 PM 43.2333 -109.5153 140° Southeast 428 493 41,000  Level Salt Lake Center
Mon 01:03:14 PM 43.1428 -109.4117 140° Southeast 443 510 41,000  Level Salt Lake Center
Mon 01:04:16 PM 43.0336 -109.2900 141° Southeast 450 518 41,000  Level Salt Lake Center
Mon 01:05:17 PM 42.9419 -109.1856 140° Southeast 443 510 41,000  Level Salt Lake Center
Mon 01:06:19 PM 42.8361 -109.0689 141° Southeast 439 505 41,000  Level Salt Lake Center
Mon 01:07:21 PM 42.7444 -108.9664 141° Southeast 443 510 41,000  Level Salt Lake Center
Mon 01:08:23 PM 42.6386 -108.8469 140° Southeast 442 509 41,000  Level Salt Lake Center
Mon 01:09:24 PM 42.5472 -108.7453 141° Southeast 444 511 41,000  Level Salt Lake Center
Mon 01:10:26 PM 42.4553 -108.6447 141° Southeast 443 510 41,000  Level Salt Lake Center
Mon 01:11:28 PM 42.3497 -108.5267 140° Southeast 439 505 41,000  Level Salt Lake Center
Mon 01:12:29 PM 42.2578 -108.4261 141° Southeast 443 510 41,000  Level Salt Lake Center
Mon 01:13:31 PM 42.1481 -108.3081 141° Southeast 447 514 41,000  Level Salt Lake Center
Mon 01:14:33 PM 42.0572 -108.2075 141° Southeast 441 507 41,000  Level Salt Lake Center
Mon 01:15:35 PM 41.9642 -108.1075 141° Southeast 445 512 41,000  Level Salt Lake Center
Mon 01:16:31 PM 41.8678 -108.0031 141° Southeast 447 514 41,000  Level Denver Center
Mon 01:17:33 PM 41.7583 -107.8867 142° Southeast 448 516 41,000  Level Denver Center
Mon 01:18:35 PM 41.6647 -107.7856 141° Southeast 449 517 41,000  Level Denver Center
Mon 01:19:37 PM 41.5572 -107.6714 142° Southeast 443 510 41,000  Level Denver Center
Mon 01:20:39 PM 41.4633 -107.5728 142° Southeast 445 512 41,000  Level Denver Center
Mon 01:21:41 PM 41.3556 -107.4597 142° Southeast 442 509 41,000  Level Denver Center
Mon 01:22:43 PM 41.2633 -107.3628 142° Southeast 440 506 41,000  Level Denver Center
Mon 01:23:45 PM 41.1703 -107.2650 142° Southeast 444 511 41,000  Level Denver Center
Mon 01:24:47 PM 41.0639 -107.1531 142° Southeast 438 504 41,000  Level Denver Center
Mon 01:25:49 PM 40.9708 -107.0578 142° Southeast 439 505 41,000  Level Denver Center
Mon 01:26:51 PM 40.8628 -106.9469 142° Southeast 442 509 41,000  Level Denver Center
Mon 01:27:53 PM 40.7706 -106.8517 142° Southeast 439 505 41,000  Level Denver Center
Mon 01:28:55 PM 40.6681 -106.7461 142° Southeast 440 506 41,000  Level Denver Center
Mon 01:29:57 PM 40.5711 -106.6469 142° Southeast 439 505 41,000  Level Denver Center
Mon 01:30:59 PM 40.4731 -106.5483 143° Southeast 442 509 41,000  Level Denver Center
Mon 01:32:01 PM 40.3733 -106.4461 142° Southeast 438 504 41,000  Level Denver Center
Mon 01:33:03 PM 40.2644 -106.3375 143° Southeast 440 506 41,000  Level Denver Center
Mon 01:34:06 PM 40.1617 -106.2344 143° Southeast 439 505 41,000  Level Denver Center
Mon 01:35:08 PM 40.0644 -106.1361 142° Southeast 439 505 41,000  Level Denver Center
Mon 01:36:10 PM 39.9658 -106.0383 143° Southeast 440 506 41,000  Level Denver Center
Mon 01:37:12 PM 39.8697 -105.9425 143° Southeast 434 499 41,000  Level Denver Center
Mon 01:38:14 PM 39.7717 -105.8456 143° Southeast 438 504 41,000  Level Denver Center
Mon 01:39:16 PM 39.6672 -105.7428 143° Southeast 442 509 41,000  Level Denver Center
Mon 01:40:18 PM 39.5642 -105.6411 143° Southeast 440 506 41,000  Level Denver Center
Mon 01:41:20 PM 39.4700 -105.5489 143° Southeast 433 498 41,000  Level Denver Center
Mon 01:42:22 PM 39.3667 -105.4489 143° Southeast 433 498 41,000  Level Denver Center
Mon 01:43:24 PM 39.2708 -105.3572 143° Southeast 428 493 41,000  Level Denver Center
Mon 01:44:26 PM 39.1678 -105.2567 143° Southeast 429 494 41,000  Level Denver Center
Mon 01:45:28 PM 39.0647 -105.1564 143° Southeast 430 495 41,000  Level Denver Center
Mon 01:46:30 PM 38.9708 -105.0683 144° Southeast 437 503 41,000  Level Denver Center
Mon 01:47:32 PM 38.8792 -104.9778 142° Southeast 434 499 41,000  Level Denver Center
Mon 01:48:34 PM 38.7725 -104.8761 143° Southeast 430 495 41,000  Level Denver Center
Mon 01:49:36 PM 38.6803 -104.7869 143° Southeast 432 497 41,000  Level Denver Center
Mon 01:50:38 PM 38.5736 -104.6828 143° Southeast 432 497 41,000  Level Denver Center
Mon 01:51:40 PM 38.4797 -104.5956 144° Southeast 435 501 41,000  Level Denver Center
Mon 01:52:42 PM 38.3722 -104.4922 143° Southeast 434 499 41,000  Level Denver Center
Mon 01:53:44 PM 38.2783 -104.4067 144° Southeast 433 498 41,000  Level Denver Center
Mon 01:54:46 PM 38.1692 -104.3056 144° Southeast 436 502 41,000  Level Denver Center
Mon 01:55:48 PM 38.0756 -104.2186 144° Southeast 433 498 41,000  Level Denver Center
Mon 01:56:50 PM 37.9678 -104.1175 144° Southeast 432 497 41,000  Level Denver Center
Mon 01:57:52 PM 37.8731 -104.0311 144° Southeast 435 501 41,000  Level Denver Center
Mon 01:58:54 PM 37.7811 -103.9458 144° Southeast 427 491 41,000  Level Denver Center
Mon 01:59:56 PM 37.6878 -103.8589 144° Southeast 427 491 41,000  Level Denver Center
Mon 02:00:58 PM 37.5758 -103.7572 144° Southeast 435 501 41,000  Level Denver Center
Mon 02:02:00 PM 37.4653 -103.6575 144° Southeast 435 501 41,000  Level Denver Center
Mon 02:03:02 PM 37.3717 -103.5728 144° Southeast 432 497 41,000  Level Denver Center
Mon 02:03:51 PM 37.2942 -103.5036 145° Southeast 430 495 41,000  Level Albuquerque Center
Mon 02:04:53 PM 37.2017 -103.4189 144° Southeast 429 494 41,000  Level Albuquerque Center
Mon 02:05:54 PM 37.0933 -103.3231 145° Southeast 427 491 41,000  Level Albuquerque Center
Mon 02:06:56 PM 37.0011 -103.2397 144° Southeast 426 490 41,000  Level Albuquerque Center
Mon 02:07:58 PM 36.8944 -103.1450 145° Southeast 422 486 41,000  Level Albuquerque Center
Mon 02:09:00 PM 36.8019 -103.0622 144° Southeast 426 490 41,000  Level Albuquerque Center
Mon 02:10:02 PM 36.6944 -102.9664 144° Southeast 425 489 41,000  Level Albuquerque Center
Mon 02:11:03 PM 36.6028 -102.8847 144° Southeast 428 493 41,000  Level Albuquerque Center
Mon 02:12:05 PM 36.4969 -102.7900 144° Southeast 431 496 41,000  Level Albuquerque Center
Mon 02:13:07 PM 36.3994 -102.7047 145° Southeast 430 495 41,000  Level Albuquerque Center
Mon 02:14:09 PM 36.3019 -102.6194 145° Southeast 430 495 41,000  Level Albuquerque Center
Mon 02:15:10 PM 36.2042 -102.5336 145° Southeast 431 496 41,000  Level Albuquerque Center
Mon 02:16:12 PM 36.1067 -102.4489 145° Southeast 429 494 41,000  Level Albuquerque Center
Mon 02:17:14 PM 36.0094 -102.3636 145° Southeast 429 494 41,000  Level Albuquerque Center
Mon 02:18:15 PM 35.8919 -102.2611 145° Southeast 430 495 41,000  Level Albuquerque Center
Mon 02:19:17 PM 35.7933 -102.1775 145° Southeast 431 496 41,000  Level Albuquerque Center
Mon 02:20:19 PM 35.6950 -102.0919 145° Southeast 432 497 41,000  Level Albuquerque Center
Mon 02:21:20 PM 35.5961 -102.0086 146° Southeast 432 497 41,000  Level Albuquerque Center
Mon 02:22:22 PM 35.4975 -101.9214 144° Southeast 430 495 41,000  Level Albuquerque Center
Mon 02:23:24 PM 35.4019 -101.8369 144° Southeast 424 488 41,000  Level Albuquerque Center
Mon 02:24:25 PM 35.3008 -101.7511 145° Southeast 429 494 41,000  Level Albuquerque Center
Mon 02:25:27 PM 35.2031 -101.6503 140° Southeast 430 495 41,000  Level Albuquerque Center
Mon 02:26:29 PM 35.1339 -101.5381 127° Southeast 416 479 41,000  Level Albuquerque Center
Mon 02:27:30 PM 35.0608 -101.4247 128° Southeast 420 483 41,000  Level Albuquerque Center
Mon 02:28:32 PM 34.9694 -101.2875 129° Southeast 428 493 41,000  Level Albuquerque Center
Mon 02:29:34 PM 34.8964 -101.1744 128° Southeast 429 494 41,000  Level Albuquerque Center
Mon 02:30:35 PM 34.8222 -101.0606 128° Southeast 428 493 41,000  Level Albuquerque Center
Mon 02:31:37 PM 34.7481 -100.9475 129° Southeast 429 494 41,000  Level Albuquerque Center
Mon 02:32:38 PM 34.6739 -100.8339 128° Southeast 429 494 41,000  Level Albuquerque Center
Mon 02:33:40 PM 34.5994 -100.7206 129° Southeast 430 495 41,000  Level Albuquerque Center
Mon 02:34:42 PM 34.5225 -100.6067 129° Southeast 434 499 41,000  Level Albuquerque Center
Mon 02:35:43 PM 34.4464 -100.4925 129° Southeast 435 501 41,000  Level Albuquerque Center
Mon 02:36:45 PM 34.3550 -100.3542 129° Southeast 438 504 41,000  Level Albuquerque Center
Mon 02:37:47 PM 34.2786 -100.2392 129° Southeast 438 504 41,000  Level Albuquerque Center
Mon 02:38:46 PM 34.1981 -100.1278 131° Southeast 436 502 41,000  Level Fort Worth Center
Mon 02:39:46 PM 34.1233 -100.0103 128° Southeast 436 502 41,000  Level Fort Worth Center
Mon 02:40:46 PM 34.0464 -99.8975 129° Southeast 436 502 41,000  Level Fort Worth Center
Mon 02:41:46 PM 33.9692 -99.7878 130° Southeast 436 502 41,000  Level Fort Worth Center
Mon 02:42:46 PM 33.8792 -99.6900 138° Southeast 431 496 41,000  Level Fort Worth Center
Mon 02:43:46 PM 33.7892 -99.5928 138° Southeast 431 496 41,000  Level Fort Worth Center
Mon 02:44:46 PM 33.6947 -99.4981 140° Southeast 437 503 41,000  Level Fort Worth Center
Mon 02:45:46 PM 33.6128 -99.4114 139° Southeast 437 503 41,000  Level Fort Worth Center
Mon 02:46:46 PM 33.5181 -99.3119 139° Southeast 437 503 41,000  Level Fort Worth Center
Mon 02:47:46 PM 33.4236 -99.2153 139° Southeast 442 509 41,000  Level Fort Worth Center
Mon 02:48:46 PM 33.3311 -99.1189 139° Southeast 447 514 41,000  Level Fort Worth Center
Mon 02:49:46 PM 33.2364 -99.0203 139° Southeast 447 514 41,000  Level Fort Worth Center
Mon 02:50:46 PM 33.1436 -98.9244 139° Southeast 447 514 41,000  Level Fort Worth Center
Mon 02:51:46 PM 33.0467 -98.8286 140° Southeast 447 514 41,000  Level Fort Worth Center
Mon 02:52:46 PM 32.9497 -98.7281 139° Southeast 453 521 41,000  Level Fort Worth Center
Mon 02:53:46 PM 32.8567 -98.6325 139° Southeast 453 521 41,000  Level Fort Worth Center
Mon 02:54:46 PM 32.7572 -98.5350 140° Southeast 453 521 41,000  Level Fort Worth Center
Mon 02:55:46 PM 32.6622 -98.4400 140° Southeast 453 521 41,000  Level Fort Worth Center
Mon 02:56:46 PM 32.5586 -98.3328 139° Southeast 453 521 41,000  Level Fort Worth Center
Mon 02:57:46 PM 32.4694 -98.2458 141° Southeast 453 521 41,000  Level Fort Worth Center
Mon 02:58:46 PM 32.3658 -98.1389 139° Southeast 453 521 41,000  Level Fort Worth Center
Mon 02:59:46 PM 32.2764 -98.0522 141° Southeast 453 521 41,000  Level Fort Worth Center
Mon 03:00:46 PM 32.1706 -97.9458 140° Southeast 453 521 41,000  Level Fort Worth Center
Mon 03:01:46 PM 32.0811 -97.8572 140° Southeast 453 521 41,000  Level Fort Worth Center
Mon 03:02:46 PM 31.9728 -97.7539 141° Southeast 453 521 41,000  Level Fort Worth Center
Mon 03:03:46 PM 31.8769 -97.6581 140° Southeast 453 521 41,000  Level Fort Worth Center
Mon 03:04:46 PM 31.7831 -97.5625 139° Southeast 453 521 41,000 -1,050 Level Fort Worth Center
Mon 03:05:46 PM 31.6850 -97.4647 140° Southeast 453 521 38,900 -2,250 Descending Fort Worth Center
Mon 03:06:46 PM 31.5892 -97.3669 139° Southeast 453 521 36,500 -2,160 Descending Fort Worth Center
Mon 03:07:26 PM 31.5392 -97.3222 143° Southeast 451 519 35,300 -2,412 Descending Houston Center
Mon 03:08:28 PM 31.4228 -97.2081 140° Southeast 460 529 32,400 -2,613 Descending Houston Center
Mon 03:09:30 PM 31.3222 -97.1108 140° Southeast 461 531 29,900 -2,129 Descending Houston Center
Mon 03:10:32 PM 31.2253 -97.0150 140° Southeast 451 519 28,000 -968 Descending Houston Center
Mon 03:11:34 PM 31.1269 -96.9203 140° Southeast 450 518 27,900 -968 Descending Houston Center
Mon 03:12:36 PM 31.0294 -96.8269 141° Southeast 445 512 26,000 -1,839 Descending Houston Center
Mon 03:13:38 PM 30.9383 -96.7397 141° Southeast 421 484 24,100 -1,887 Descending Houston Center
Mon 03:14:40 PM 30.8500 -96.6547 140° Southeast 409 471 22,100 -2,081 Descending Houston Center
Mon 03:15:42 PM 30.7656 -96.5744 141° Southeast 392 451 19,800 -2,081 Descending Houston Center
Mon 03:16:44 PM 30.6811 -96.4928 140° Southeast 391 450 17,800 -2,226 Descending Houston Center
Mon 03:17:46 PM 30.5967 -96.4181 143° Southeast 379 436 15,200 -2,431 Descending Houston Center
Mon 03:19:17 PM 30.4408 -96.3583 162° South 338 389 11,600 -2,164 Descending Houston Center
Mon 03:19:48 PM 30.3972 -96.3392 159° South 336 387 10,800 -1,630 Descending Houston Center
Mon 03:20:49 PM 30.3150 -96.3094 163° South 281 323 9,100 -912 Descending Houston Center
Mon 03:21:53 PM 30.2394 -96.2781 160° South 289 333 8,900 -571 Descending Houston Center
Mon 03:22:55 PM 30.1708 -96.2514 161° South 265 305 7,900 -1,113 Descending Houston Center
Mon 03:23:57 PM 30.1058 -96.2256 161° South 256 295 6,600 -1,403 Descending Houston Center
Mon 03:24:59 PM 30.0450 -96.2003 160° South 240 276 5,000 -1,258 Descending Houston Center
Mon 03:26:01 PM 29.9875 -96.1517 144° Southeast 219 252 4,000 -667 Descending Houston Center
Mon 03:26:56 PM 29.9597 -96.1008 122° Southeast 228 262 3,700 -517 Descending Houston Center
Mon 03:27:57 PM 29.9269 -96.0394 122° Southeast 205 236 3,000 -344 Descending Houston Center
Mon 03:28:58 PM 29.8944 -95.9781 121° Southeast 215 247 3,000  Level Houston Center
Mon 03:29:53 PM 29.8667 -95.9236 120° Southeast 222 255 3,000  Level Houston Center
Mon 03:30:09 PM 29.8619 -95.9161 126° Southeast 217 250 3,000 -590 Level Houston Center
Mon 03:30:54 PM 29.8344 -95.8669 123° Southeast 209 241 2,400 -677 Descending Houston Center
Mon 03:31:11 PM 29.8319 -95.8600 113° Southeast 211 243 2,300 -393 Descending Houston Center
Mon 03:31:55 PM 29.8064 -95.8125 122° Southeast 200 230 2,000 -290 Descending Houston Center
Mon 03:32:13 PM 29.7961 -95.7936 122° Southeast 205 236 2,000  Level Houston Center
Mon 03:32:57 PM 29.7714 -95.7492 123° Southeast 222 255 2,000  Level Houston Center
Mon 03:33:15 PM 29.7644 -95.7344 119° Southeast 212 244 2,000  Level Houston Center
Mon 03:33:58 PM 29.7411 -95.6903 121° Southeast 218 251 2,000  Level Houston Center
Mon 03:34:17 PM 29.7322 -95.6767 127° Southeast 215 247 2,000 -197 Level Houston Center
Mon 03:34:59 PM 29.6947 -95.6644 164° South 189 217 1,800 -387 Descending Houston Center
Mon 03:35:19 PM 29.6811 -95.6628 174° South 201 231 1,600 -984 Descending Houston Center
Mon 03:36:00 PM 29.6544 -95.6619 178° South 110 127 800 -968 Descending Houston Center
Mon 03:36:21 PM 29.6461 -95.6597 167° South 163 188 600 -289 Descending Houston Center
Mon 03:37:23 PM 29.6133 -95.6572 176° South 155 178 400 -194 Descending Houston Center

Login

Don't have an account? Register now (free) for customized features, flight alerts, and more!